Time;durP1;ratioP1;P1;durP2;ratioP2;P2;SDS_P1;SDS_P2;PMS_P1;PMS_P2;Temp;Humidity;BMP_temperature;BMP_pressure;BME280_temperature;BME280_humidity;BME280_pressure;Samples;Min_cycle;Max_cycle;Signal;HPM_P1;HPM_P2
2022/10/18 00:00:08;;;;;;;1.10;1.10;;;;;;;;;;5065528;28;20102;-88
2022/10/18 00:02:36;;;;;;;0.88;0.88;;;;;;;;;;5073428;28;20454;-88
2022/10/18 00:05:03;;;;;;;1.23;1.00;;;;;;;;;;5073249;28;20500;-88
2022/10/18 00:07:29;;;;;;;1.17;1.15;;;;;;;;;;5073515;28;20127;-88
2022/10/18 00:09:56;;;;;;;0.45;0.45;;;;;;;;;;5073368;28;20048;-89
2022/10/18 00:12:22;;;;;;;1.20;0.70;;;;;;;;;;5073148;28;20056;-89
2022/10/18 00:14:49;;;;;;;0.30;0.13;;;;;;;;;;5072966;28;20056;-88
2022/10/18 00:17:16;;;;;;;1.48;1.38;;;;;;;;;;5072059;28;20056;-89
2022/10/18 00:19:45;;;;;;;0.50;0.50;;;;;;;;;;5073100;28;20497;-89
2022/10/18 00:22:11;;;;;;;0.30;0.13;;;;;;;;;;5072964;28;20052;-89
2022/10/18 00:24:38;;;;;;;1.40;0.68;;;;;;;;;;5064592;28;20106;-86
2022/10/18 00:27:04;;;;;;;0.80;0.80;;;;;;;;;;5052607;28;20099;-85
2022/10/18 00:29:31;;;;;;;0.65;0.65;;;;;;;;;;5068315;28;20765;-86
2022/10/18 00:31:57;;;;;;;0.68;0.68;;;;;;;;;;5058129;28;20095;-85
2022/10/18 00:34:24;;;;;;;2.80;1.52;;;;;;;;;;5069654;28;20052;-86
2022/10/18 00:36:52;;;;;;;1.48;0.82;;;;;;;;;;5072824;28;20647;-86
2022/10/18 00:39:19;;;;;;;0.75;0.75;;;;;;;;;;5057109;28;20127;-85
2022/10/18 00:41:46;;;;;;;0.70;0.65;;;;;;;;;;5052362;28;20107;-84
2022/10/18 00:44:31;;;;;;;0.47;0.47;;;;;;;;;;5068530;28;20052;-85
2022/10/18 00:46:59;;;;;;;1.40;0.32;;;;;;;;;;5072356;28;20102;-85
2022/10/18 00:49:27;;;;;;;0.55;0.52;;;;;;;;;;5071194;28;20071;-86
2022/10/18 00:51:56;;;;;;;3.42;1.15;;;;;;;;;;5072353;28;20098;-85
2022/10/18 00:54:23;;;;;;;1.58;1.48;;;;;;;;;;5071892;28;20052;-85
2022/10/18 00:56:50;;;;;;;0.80;0.80;;;;;;;;;;5072276;28;20557;-85
2022/10/18 00:59:18;;;;;;;1.27;1.13;;;;;;;;;;5072225;28;20052;-85
2022/10/18 01:01:45;;;;;;;0.55;0.40;;;;;;;;;;5071932;28;20458;-85
2022/10/18 01:04:11;;;;;;;0.57;0.52;;;;;;;;;;5071913;28;20102;-85
2022/10/18 01:06:41;;;;;;;0.38;0.28;;;;;;;;;;5072070;28;20049;-85
2022/10/18 01:09:16;;;;;;;1.35;1.17;;;;;;;;;;5070698;28;20459;-85
2022/10/18 01:11:48;;;;;;;0.55;0.55;;;;;;;;;;5072123;28;20053;-85
2022/10/18 01:14:22;;;;;;;0.65;0.55;;;;;;;;;;5071615;28;20105;-85
2022/10/18 01:16:52;;;;;;;1.58;1.48;;;;;;;;;;5071789;28;20484;-85
2022/10/18 01:19:29;;;;;;;0.77;0.77;;;;;;;;;;5071787;28;20655;-86
2022/10/18 01:21:59;;;;;;;3.03;1.55;;;;;;;;;;5071823;28;20109;-85
2022/10/18 01:24:45;;;;;;;0.88;0.85;;;;;;;;;;5070931;28;20137;-85
2022/10/18 01:27:30;;;;;;;1.35;1.25;;;;;;;;;;5051915;28;20052;-85
2022/10/18 01:30:06;;;;;;;0.55;0.55;;;;;;;;;;5051880;28;20072;-85
2022/10/18 01:32:36;;;;;;;0.60;0.60;;;;;;;;;;5051741;28;20581;-86
2022/10/18 01:35:04;;;;;;;0.98;0.85;;;;;;;;;;5071921;28;20052;-86
2022/10/18 01:37:31;;;;;;;0.88;0.80;;;;;;;;;;5071446;28;20052;-86
2022/10/18 01:39:58;;;;;;;0.30;0.20;;;;;;;;;;5071429;28;20049;-86
2022/10/18 01:42:25;;;;;;;0.93;0.75;;;;;;;;;;5062486;28;20095;-86
2022/10/18 01:44:53;;;;;;;0.43;0.43;;;;;;;;;;5051715;28;20106;-86
2022/10/18 01:47:20;;;;;;;0.60;0.60;;;;;;;;;;5051482;28;20057;-85
2022/10/18 01:49:48;;;;;;;0.52;0.52;;;;;;;;;;5051671;28;20110;-85
2022/10/18 01:52:15;;;;;;;0.47;0.30;;;;;;;;;;5051582;28;20057;-85
2022/10/18 01:54:43;;;;;;;0.30;0.20;;;;;;;;;;5051480;28;20045;-86
2022/10/18 01:57:12;;;;;;;0.65;0.65;;;;;;;;;;5051708;28;20041;-85
2022/10/18 01:59:45;;;;;;;1.45;1.35;;;;;;;;;;5056980;28;20078;-85
2022/10/18 02:02:17;;;;;;;0.43;0.40;;;;;;;;;;5071675;28;20508;-85
2022/10/18 02:04:46;;;;;;;1.75;1.25;;;;;;;;;;5071166;28;20103;-85
2022/10/18 02:07:20;;;;;;;1.45;1.35;;;;;;;;;;5071505;28;20102;-85
2022/10/18 02:09:49;;;;;;;0.80;0.80;;;;;;;;;;5071247;28;20057;-85
2022/10/18 02:12:16;;;;;;;4.18;1.10;;;;;;;;;;5071423;28;20052;-85
2022/10/18 02:14:43;;;;;;;0.95;0.95;;;;;;;;;;5070173;28;20443;-86
2022/10/18 02:17:11;;;;;;;1.33;1.30;;;;;;;;;;5071257;28;20094;-85
2022/10/18 02:19:40;;;;;;;0.63;0.50;;;;;;;;;;5070813;28;20080;-85
2022/10/18 02:22:08;;;;;;;0.50;0.50;;;;;;;;;;5071234;28;20481;-86
2022/10/18 02:24:37;;;;;;;0.98;0.98;;;;;;;;;;5071286;28;20401;-85
2022/10/18 02:27:04;;;;;;;0.60;0.52;;;;;;;;;;5071325;28;20451;-85
2022/10/18 02:29:31;;;;;;;0.57;0.57;;;;;;;;;;5071002;28;20558;-85
2022/10/18 02:32:01;;;;;;;0.80;0.80;;;;;;;;;;5070339;28;20496;-85
2022/10/18 02:34:30;;;;;;;0.52;0.47;;;;;;;;;;5071323;28;20048;-85
2022/10/18 02:36:58;;;;;;;0.43;0.43;;;;;;;;;;5074998;28;20561;-85
2022/10/18 02:39:29;;;;;;;0.20;0.20;;;;;;;;;;5074888;28;20045;-85
2022/10/18 02:41:57;;;;;;;1.20;1.17;;;;;;;;;;5074776;28;20090;-85
2022/10/18 02:44:24;;;;;;;4.40;4.03;;;;;;;;;;5074683;28;20106;-85
2022/10/18 02:46:51;;;;;;;0.85;0.85;;;;;;;;;;5074672;28;20121;-85
2022/10/18 02:49:17;;;;;;;0.43;0.22;;;;;;;;;;5073801;28;20113;-85
2022/10/18 02:51:43;;;;;;;1.35;1.25;;;;;;;;;;5074636;28;20053;-85
2022/10/18 02:54:10;;;;;;;1.42;0.68;;;;;;;;;;5074207;28;20462;-85
2022/10/18 02:56:36;;;;;;;2.88;2.67;;;;;;;;;;5074804;28;20044;-85
2022/10/18 02:59:06;;;;;;;0.50;0.43;;;;;;;;;;5074303;28;20045;-85
2022/10/18 03:01:32;;;;;;;1.40;1.05;;;;;;;;;;5074542;28;20115;-85
2022/10/18 03:03:59;;;;;;;0.98;0.90;;;;;;;;;;5074060;28;20502;-84
2022/10/18 03:06:25;;;;;;;0.20;0.13;;;;;;;;;;5063381;28;20126;-85
2022/10/18 03:08:52;;;;;;;0.40;0.22;;;;;;;;;;5054541;28;20086;-85
2022/10/18 03:11:18;;;;;;;0.70;0.40;;;;;;;;;;5054166;28;20554;-85
2022/10/18 03:13:45;;;;;;;1.95;1.65;;;;;;;;;;5054377;28;20094;-85
2022/10/18 03:16:13;;;;;;;0.43;0.20;;;;;;;;;;5054097;28;20094;-85
2022/10/18 03:18:39;;;;;;;1.55;0.47;;;;;;;;;;5053919;28;20684;-85
2022/10/18 03:21:06;;;;;;;0.20;0.20;;;;;;;;;;5054283;28;20056;-85
2022/10/18 03:23:33;;;;;;;0.80;0.80;;;;;;;;;;5072158;28;20041;-84
2022/10/18 03:25:59;;;;;;;0.52;0.32;;;;;;;;;;5073882;28;20397;-84
2022/10/18 03:28:26;;;;;;;0.25;0.20;;;;;;;;;;5073945;28;20113;-85
2022/10/18 03:30:52;;;;;;;0.30;0.30;;;;;;;;;;5073873;28;20488;-84
2022/10/18 03:33:20;;;;;;;1.08;0.98;;;;;;;;;;5074040;28;20109;-84
2022/10/18 03:35:47;;;;;;;1.08;1.05;;;;;;;;;;5073659;28;20117;-85
2022/10/18 03:38:13;;;;;;;0.93;0.93;;;;;;;;;;5066010;28;20045;-87
2022/10/18 03:40:40;;;;;;;1.30;1.20;;;;;;;;;;5057339;28;20045;-87
2022/10/18 03:43:06;;;;;;;7.13;1.08;;;;;;;;;;5062543;28;20045;-87
2022/10/18 03:45:33;;;;;;;0.50;0.50;;;;;;;;;;5063866;28;20048;-87
2022/10/18 03:47:59;;;;;;;0.57;0.40;;;;;;;;;;5060920;28;20439;-87
2022/10/18 03:50:27;;;;;;;1.45;0.75;;;;;;;;;;5063909;28;20094;-87
2022/10/18 03:52:54;;;;;;;0.88;0.75;;;;;;;;;;5054379;28;20052;-86
2022/10/18 03:55:20;;;;;;;0.95;0.77;;;;;;;;;;5067924;28;20137;-87
2022/10/18 03:57:47;;;;;;;1.45;1.35;;;;;;;;;;5073481;28;20052;-87
2022/10/18 04:00:14;;;;;;;1.17;1.17;;;;;;;;;;5072950;28;20048;-87
2022/10/18 04:02:40;;;;;;;1.27;1.25;;;;;;;;;;5073684;28;20044;-87
2022/10/18 04:05:07;;;;;;;0.75;0.60;;;;;;;;;;5073187;28;20052;-87
2022/10/18 04:07:36;;;;;;;0.65;0.65;;;;;;;;;;5073350;28;20481;-86
2022/10/18 04:10:02;;;;;;;1.30;1.20;;;;;;;;;;5072012;28;20045;-87
2022/10/18 04:12:28;;;;;;;0.30;0.25;;;;;;;;;;5073198;28;20437;-87
2022/10/18 04:14:55;;;;;;;0.77;0.77;;;;;;;;;;5072720;28;20098;-86
2022/10/18 04:17:21;;;;;;;0.70;0.70;;;;;;;;;;5072754;28;20053;-87
2022/10/18 04:19:48;;;;;;;1.55;1.40;;;;;;;;;;5072507;28;20048;-87
2022/10/18 04:22:15;;;;;;;1.10;1.08;;;;;;;;;;5073124;28;20044;-87
2022/10/18 04:24:42;;;;;;;0.68;0.65;;;;;;;;;;5072419;28;20056;-86
2022/10/18 04:27:09;;;;;;;1.65;1.58;;;;;;;;;;5071993;28;20049;-86
2022/10/18 04:29:35;;;;;;;1.33;1.23;;;;;;;;;;5072348;28;20048;-86
2022/10/18 04:32:02;;;;;;;0.73;0.43;;;;;;;;;;5072724;28;20048;-87
2022/10/18 04:34:28;;;;;;;0.43;0.35;;;;;;;;;;5072528;28;20459;-86
2022/10/18 04:36:55;;;;;;;3.15;0.43;;;;;;;;;;5072845;28;20044;-87
2022/10/18 04:39:21;;;;;;;1.70;1.15;;;;;;;;;;5072251;28;20090;-87
2022/10/18 04:41:49;;;;;;;0.73;0.68;;;;;;;;;;5071474;28;20044;-86
2022/10/18 04:44:16;;;;;;;2.00;1.90;;;;;;;;;;5067659;28;20185;-87
2022/10/18 04:46:42;;;;;;;0.55;0.55;;;;;;;;;;5072413;28;20500;-87
2022/10/18 04:49:09;;;;;;;1.08;0.50;;;;;;;;;;5072323;28;20048;-87
2022/10/18 04:51:35;;;;;;;1.10;1.10;;;;;;;;;;5072427;28;20044;-87
2022/10/18 04:54:02;;;;;;;1.90;0.75;;;;;;;;;;5072002;28;20045;-87
2022/10/18 04:56:28;;;;;;;0.75;0.75;;;;;;;;;;5072185;28;20484;-87
2022/10/18 04:58:56;;;;;;;0.70;0.68;;;;;;;;;;5070611;28;20102;-86
2022/10/18 05:01:22;;;;;;;0.50;0.50;;;;;;;;;;5071975;28;20040;-87
2022/10/18 05:03:51;;;;;;;1.30;1.20;;;;;;;;;;5072057;28;20052;-86
2022/10/18 05:06:18;;;;;;;3.75;1.58;;;;;;;;;;5072249;28;20502;-86
2022/10/18 05:08:44;;;;;;;0.55;0.52;;;;;;;;;;5072181;28;20048;-86
2022/10/18 05:11:11;;;;;;;2.90;1.70;;;;;;;;;;5071592;28;20450;-86
2022/10/18 05:13:37;;;;;;;2.00;0.77;;;;;;;;;;5068913;28;20083;-85
2022/10/18 05:16:06;;;;;;;0.55;0.50;;;;;;;;;;5070905;28;20041;-86
2022/10/18 05:18:32;;;;;;;0.85;0.73;;;;;;;;;;5071682;28;20056;-86
2022/10/18 05:20:59;;;;;;;0.73;0.73;;;;;;;;;;5071646;28;20095;-86
2022/10/18 05:23:25;;;;;;;1.60;1.50;;;;;;;;;;5071998;28;20052;-86
2022/10/18 05:25:52;;;;;;;0.90;0.85;;;;;;;;;;5071429;28;20045;-85
2022/10/18 05:28:18;;;;;;;1.40;1.08;;;;;;;;;;5071603;28;20446;-86
2022/10/18 05:30:45;;;;;;;2.80;2.55;;;;;;;;;;5071629;28;20044;-86
2022/10/18 05:33:13;;;;;;;1.52;1.42;;;;;;;;;;5070670;28;20102;-85
2022/10/18 05:35:39;;;;;;;0.45;0.45;;;;;;;;;;5071533;28;20045;-86
2022/10/18 05:38:06;;;;;;;0.85;0.85;;;;;;;;;;5071491;28;20419;-85
2022/10/18 05:40:32;;;;;;;0.57;0.47;;;;;;;;;;5070985;28;20090;-86
2022/10/18 05:42:59;;;;;;;0.50;0.43;;;;;;;;;;5071303;28;20045;-86
2022/10/18 05:45:25;;;;;;;1.08;0.90;;;;;;;;;;5071064;28;20053;-86
2022/10/18 05:47:52;;;;;;;4.72;1.13;;;;;;;;;;5071364;28;20053;-86
2022/10/18 05:50:19;;;;;;;2.28;2.17;;;;;;;;;;5070238;28;20377;-86
2022/10/18 05:52:46;;;;;;;1.30;0.93;;;;;;;;;;5071539;28;20496;-86
2022/10/18 05:55:12;;;;;;;1.20;1.13;;;;;;;;;;5070794;28;20056;-86
2022/10/18 05:57:39;;;;;;;1.45;1.25;;;;;;;;;;5071383;28;20106;-86
2022/10/18 06:00:06;;;;;;;2.33;1.88;;;;;;;;;;5070869;28;20544;-86
2022/10/18 06:02:32;;;;;;;1.90;1.80;;;;;;;;;;5071149;28;20098;-86
2022/10/18 06:04:59;;;;;;;1.75;1.65;;;;;;;;;;5070878;28;20492;-86
2022/10/18 06:07:27;;;;;;;1.23;1.13;;;;;;;;;;5065952;28;20048;-86
2022/10/18 06:09:53;;;;;;;4.57;2.30;;;;;;;;;;5058003;28;20106;-86
2022/10/18 06:12:20;;;;;;;1.55;1.15;;;;;;;;;;5055221;28;20053;-86
2022/10/18 06:14:48;;;;;;;1.23;1.00;;;;;;;;;;5055111;28;20098;-86
2022/10/18 06:17:14;;;;;;;2.38;2.17;;;;;;;;;;5054282;28;20061;-87
2022/10/18 06:19:43;;;;;;;1.30;1.20;;;;;;;;;;5069819;28;20036;-86
2022/10/18 06:22:09;;;;;;;0.88;0.70;;;;;;;;;;5052084;28;20124;-86
2022/10/18 06:24:37;;;;;;;3.63;0.80;;;;;;;;;;5074215;28;20049;-86
2022/10/18 06:27:08;;;;;;;1.15;1.05;;;;;;;;;;5055197;28;20644;-87
2022/10/18 06:29:34;;;;;;;0.77;0.77;;;;;;;;;;5068847;28;20040;-86
2022/10/18 06:32:01;;;;;;;2.65;2.47;;;;;;;;;;5067637;28;20057;-87
2022/10/18 06:34:27;;;;;;;1.30;1.20;;;;;;;;;;5065839;28;20056;-86
2022/10/18 06:36:54;;;;;;;1.58;1.48;;;;;;;;;;5064553;28;20056;-86
2022/10/18 06:39:20;;;;;;;1.17;1.17;;;;;;;;;;5063483;28;20098;-87
2022/10/18 06:41:48;;;;;;;1.35;1.25;;;;;;;;;;5064434;28;20045;-87
2022/10/18 06:44:16;;;;;;;1.52;1.42;;;;;;;;;;5064822;28;20044;-86
2022/10/18 06:46:42;;;;;;;3.05;2.85;;;;;;;;;;5056861;28;20059;-87
2022/10/18 06:49:09;;;;;;;2.20;1.45;;;;;;;;;;5054309;28;20061;-86
2022/10/18 06:51:35;;;;;;;3.55;3.35;;;;;;;;;;5054139;28;20057;-87
2022/10/18 06:54:02;;;;;;;1.10;1.02;;;;;;;;;;5054667;28;20102;-87
2022/10/18 06:56:29;;;;;;;0.82;0.82;;;;;;;;;;5054568;28;20044;-86
2022/10/18 06:58:57;;;;;;;4.43;1.70;;;;;;;;;;5054946;28;20060;-87
2022/10/18 07:01:23;;;;;;;1.67;1.38;;;;;;;;;;5053854;28;20048;-86
2022/10/18 07:03:51;;;;;;;1.23;1.10;;;;;;;;;;5054060;28;20099;-86
2022/10/18 07:06:19;;;;;;;2.30;2.20;;;;;;;;;;5053536;28;20459;-86
2022/10/18 07:08:46;;;;;;;3.60;2.45;;;;;;;;;;5053810;28;20053;-89
2022/10/18 07:11:14;;;;;;;3.17;2.17;;;;;;;;;;5053990;28;20558;-89
2022/10/18 07:13:41;;;;;;;2.55;2.42;;;;;;;;;;5054413;28;20103;-88
2022/10/18 07:16:10;;;;;;;2.05;1.95;;;;;;;;;;5053781;28;20056;-89
2022/10/18 07:18:38;;;;;;;2.55;2.45;;;;;;;;;;5053183;28;20090;-89
2022/10/18 07:21:06;;;;;;;2.25;2.00;;;;;;;;;;5061412;28;20049;-89
2022/10/18 07:23:33;;;;;;;2.47;2.30;;;;;;;;;;5073434;28;20102;-89
2022/10/18 07:26:00;;;;;;;1.98;1.70;;;;;;;;;;5065293;28;20053;-89
2022/10/18 07:28:27;;;;;;;2.70;1.42;;;;;;;;;;5053727;28;20076;-88
2022/10/18 07:30:54;;;;;;;2.17;2.08;;;;;;;;;;5053536;28;20052;-87
2022/10/18 07:33:23;;;;;;;5.15;2.80;;;;;;;;;;5053681;28;20130;-87
2022/10/18 07:35:50;;;;;;;1.05;0.85;;;;;;;;;;5052417;28;20076;-87
2022/10/18 07:38:16;;;;;;;1.67;1.58;;;;;;;;;;5053352;28;20102;-87
2022/10/18 07:40:42;;;;;;;2.53;2.33;;;;;;;;;;5058364;28;20048;-87
2022/10/18 07:43:09;;;;;;;2.50;2.03;;;;;;;;;;5053696;28;20459;-88
2022/10/18 07:45:35;;;;;;;1.88;1.77;;;;;;;;;;5070698;28;20106;-87
2022/10/18 07:48:02;;;;;;;2.55;2.13;;;;;;;;;;5073016;28;20044;-88
2022/10/18 07:50:30;;;;;;;3.17;2.90;;;;;;;;;;5073029;28;20061;-87
2022/10/18 07:52:56;;;;;;;1.90;1.80;;;;;;;;;;5073259;28;20048;-88
2022/10/18 07:55:23;;;;;;;2.97;2.78;;;;;;;;;;5072858;28;20102;-87
2022/10/18 07:57:49;;;;;;;2.33;2.22;;;;;;;;;;5059755;28;20045;-88
2022/10/18 08:00:16;;;;;;;2.60;2.47;;;;;;;;;;5078729;28;20048;-88
2022/10/18 08:02:48;;;;;;;3.15;2.92;;;;;;;;;;5067576;28;20557;-88
2022/10/18 08:05:15;;;;;;;2.47;2.22;;;;;;;;;;5071114;28;20110;-88
2022/10/18 08:07:43;;;;;;;1.33;1.23;;;;;;;;;;5059139;28;20048;-88
2022/10/18 08:10:09;;;;;;;2.05;1.92;;;;;;;;;;5072045;28;20052;-86
2022/10/18 08:12:36;;;;;;;2.35;2.22;;;;;;;;;;5059318;28;20106;-87
2022/10/18 08:15:03;;;;;;;4.60;3.20;;;;;;;;;;5059610;28;20107;-87
2022/10/18 08:17:29;;;;;;;3.05;2.80;;;;;;;;;;5079234;28;20060;-87
2022/10/18 08:19:56;;;;;;;2.70;2.50;;;;;;;;;;5071970;28;20048;-87
2022/10/18 08:22:22;;;;;;;2.58;2.22;;;;;;;;;;5068191;28;20384;-87
2022/10/18 08:24:50;;;;;;;3.67;3.35;;;;;;;;;;5065349;28;20048;-87
2022/10/18 08:27:17;;;;;;;3.60;3.40;;;;;;;;;;5059525;28;20090;-87
2022/10/18 08:29:43;;;;;;;1.27;1.17;;;;;;;;;;5063938;28;20451;-87
2022/10/18 08:32:10;;;;;;;2.63;2.53;;;;;;;;;;5067728;28;20056;-87
2022/10/18 08:34:36;;;;;;;2.10;1.90;;;;;;;;;;5071281;28;20121;-87
2022/10/18 08:37:03;;;;;;;3.90;3.50;;;;;;;;;;5065964;28;20553;-87
2022/10/18 08:39:30;;;;;;;3.92;3.63;;;;;;;;;;5071970;28;20048;-86
2022/10/18 08:42:13;;;;;;;5.53;3.03;;;;;;;;;;5062883;28;20052;-87
2022/10/18 08:44:43;;;;;;;1.92;1.83;;;;;;;;;;5066952;28;20060;-86
2022/10/18 08:47:13;;;;;;;3.58;3.38;;;;;;;;;;5064348;28;20053;-86
2022/10/18 08:49:43;;;;;;;2.63;2.20;;;;;;;;;;5063005;28;20684;-87
2022/10/18 08:52:13;;;;;;;3.60;3.25;;;;;;;;;;5071369;28;20045;-87
2022/10/18 08:54:44;;;;;;;2.60;2.40;;;;;;;;;;5071717;28;20082;-86
2022/10/18 08:57:13;;;;;;;;;;;;;;;;;;5061793;28;20047;-87
2022/10/18 08:59:42;;;;;;;2.20;2.10;;;;;;;;;;5075882;28;19920;-88
2022/10/18 09:02:15;;;;;;;3.28;2.58;;;;;;;;;;5066339;28;20129;-86
2022/10/18 09:04:46;;;;;;;5.03;3.13;;;;;;;;;;5073259;28;20044;-86
2022/10/18 09:07:19;;;;;;;4.68;3.50;;;;;;;;;;5061702;28;21295;-85
2022/10/18 09:09:48;;;;;;;6.05;3.38;;;;;;;;;;5066365;28;20106;-86
2022/10/18 09:12:26;;;;;;;2.30;1.88;;;;;;;;;;5068271;28;20037;-85
2022/10/18 09:15:03;;;;;;;2.08;1.67;;;;;;;;;;5068126;28;20139;-86
2022/10/18 09:17:32;;;;;;;2.40;2.22;;;;;;;;;;5061432;28;20520;-86
2022/10/18 09:20:08;;;;;;;1.30;1.20;;;;;;;;;;5066814;28;20052;-88
2022/10/18 09:22:41;;;;;;;1.33;1.23;;;;;;;;;;5071058;28;20060;-87
2022/10/18 09:25:15;;;;;;;7.38;2.97;;;;;;;;;;5060021;28;20481;-87
2022/10/18 09:27:45;;;;;;;2.97;2.75;;;;;;;;;;5057737;28;20106;-86
2022/10/18 09:30:11;;;;;;;;;;;;;;;;;;5071788;28;20052;-86
2022/10/18 09:32:43;;;;;;;2.40;2.20;;;;;;;;;;5070964;28;19920;-87
2022/10/18 09:35:13;;;;;;;1.65;1.55;;;;;;;;;;5070322;28;20101;-87
2022/10/18 09:37:40;;;;;;;3.35;3.03;;;;;;;;;;5070912;28;20463;-87
2022/10/18 09:40:13;;;;;;;3.08;2.88;;;;;;;;;;5070948;28;20393;-87
2022/10/18 09:42:41;;;;;;;2.47;2.22;;;;;;;;;;5056506;28;20052;-87
2022/10/18 09:45:13;;;;;;;3.38;1.67;;;;;;;;;;5064241;28;20101;-87
2022/10/18 09:47:44;;;;;;;2.78;2.28;;;;;;;;;;5069839;28;20048;-87
2022/10/18 09:50:16;;;;;;;3.70;2.17;;;;;;;;;;5068816;28;20090;-87
2022/10/18 09:52:46;;;;;;;3.55;3.33;;;;;;;;;;5051594;28;20126;-87
2022/10/18 09:55:15;;;;;;;4.15;3.85;;;;;;;;;;5070343;28;20048;-87
2022/10/18 09:57:44;;;;;;;3.15;1.35;;;;;;;;;;5068225;28;20048;-88
2022/10/18 10:00:15;;;;;;;2.88;2.05;;;;;;;;;;5071199;28;20117;-88
2022/10/18 10:02:42;;;;;;;2.88;2.53;;;;;;;;;;5057139;28;20107;-87
2022/10/18 10:05:12;;;;;;;5.05;2.58;;;;;;;;;;5069595;28;20124;-88
2022/10/18 10:07:41;;;;;;;3.88;2.80;;;;;;;;;;5064436;28;20128;-87
2022/10/18 10:10:12;;;;;;;2.13;1.83;;;;;;;;;;5069363;28;20045;-88
2022/10/18 10:12:39;;;;;;;4.97;2.70;;;;;;;;;;5068710;28;20117;-87
2022/10/18 10:15:10;;;;;;;4.32;3.08;;;;;;;;;;5049471;28;20053;-88
2022/10/18 10:17:36;;;;;;;3.15;2.60;;;;;;;;;;5050080;28;20492;-87
2022/10/18 10:20:11;;;;;;;5.05;3.15;;;;;;;;;;5067548;28;20056;-88
2022/10/18 10:22:38;;;;;;;2.83;2.53;;;;;;;;;;5066460;28;20045;-87
2022/10/18 10:25:06;;;;;;;5.07;3.05;;;;;;;;;;5067335;28;20052;-88
2022/10/18 10:27:34;;;;;;;3.17;2.90;;;;;;;;;;5070075;28;20488;-87
2022/10/18 10:30:01;;;;;;;2.33;2.15;;;;;;;;;;5065709;28;20044;-87
2022/10/18 10:32:29;;;;;;;4.00;3.05;;;;;;;;;;5082434;28;20048;-87
2022/10/18 10:34:56;;;;;;;3.75;2.75;;;;;;;;;;5072266;28;20048;-87
2022/10/18 10:37:29;;;;;;;4.03;2.65;;;;;;;;;;5065438;28;20079;-87
2022/10/18 10:40:12;;;;;;;1.55;1.33;;;;;;;;;;5058307;28;20488;-88
2022/10/18 10:42:49;;;;;;;3.17;2.78;;;;;;;;;;5050615;28;20045;-88
2022/10/18 10:45:16;;;;;;;4.45;2.92;;;;;;;;;;5051079;28;20122;-86
2022/10/18 10:47:42;;;;;;;3.95;2.60;;;;;;;;;;5050525;28;20496;-87
2022/10/18 10:50:10;;;;;;;3.38;2.10;;;;;;;;;;5050721;28;20099;-87
2022/10/18 10:52:39;;;;;;;2.63;2.40;;;;;;;;;;5050895;28;20114;-87
2022/10/18 10:55:15;;;;;;;3.38;2.42;;;;;;;;;;5050287;28;20063;-87
2022/10/18 10:57:43;;;;;;;3.65;2.38;;;;;;;;;;5053050;28;20056;-87
2022/10/18 11:00:31;;;;;;;2.25;1.90;;;;;;;;;;5054188;28;20489;-88
2022/10/18 11:03:05;;;;;;;3.33;2.35;;;;;;;;;;5053759;28;20099;-86
2022/10/18 11:05:41;;;;;;;3.20;2.97;;;;;;;;;;5062266;28;20121;-87
2022/10/18 11:08:10;;;;;;;1.90;1.67;;;;;;;;;;5071258;28;20052;-87
2022/10/18 11:10:42;;;;;;;4.25;3.00;;;;;;;;;;5064142;28;20053;-87
2022/10/18 11:13:17;;;;;;;3.13;2.83;;;;;;;;;;5073882;28;20053;-88
2022/10/18 11:15:46;;;;;;;3.30;2.83;;;;;;;;;;5073801;28;20052;-87
2022/10/18 11:18:17;;;;;;;2.47;2.10;;;;;;;;;;5072850;28;20052;-87
2022/10/18 11:20:46;;;;;;;2.05;1.95;;;;;;;;;;5073792;28;20052;-87
2022/10/18 11:23:14;;;;;;;2.20;2.05;;;;;;;;;;5061726;28;20045;-88
2022/10/18 11:25:59;;;;;;;1.70;1.60;;;;;;;;;;5073903;28;20110;-87
2022/10/18 11:28:33;;;;;;;2.03;1.83;;;;;;;;;;5062710;28;20057;-87
2022/10/18 11:31:08;;;;;;;4.30;2.65;;;;;;;;;;5075230;28;20673;-87
2022/10/18 11:33:42;;;;;;;6.95;2.83;;;;;;;;;;5066620;28;20089;-87
2022/10/18 11:36:10;;;;;;;6.03;3.95;;;;;;;;;;5057300;28;20052;-88
2022/10/18 11:38:41;;;;;;;2.08;1.92;;;;;;;;;;5070325;28;20056;-88
2022/10/18 11:41:14;;;;;;;3.95;2.97;;;;;;;;;;5069265;28;20056;-88
2022/10/18 11:43:45;;;;;;;2.78;2.58;;;;;;;;;;5067901;28;20499;-87
2022/10/18 11:46:14;;;;;;;3.75;3.30;;;;;;;;;;5057912;28;20412;-87
2022/10/18 11:48:49;;;;;;;24.65;12.63;;;;;;;;;;5053172;28;20061;-88
2022/10/18 11:51:21;;;;;;;12.93;8.07;;;;;;;;;;5062094;28;20052;-88
2022/10/18 11:53:56;;;;;;;9.43;5.82;;;;;;;;;;5062354;28;20049;-88
2022/10/18 11:56:25;;;;;;;4.53;4.18;;;;;;;;;;5063282;28;20052;-89
2022/10/18 11:58:59;;;;;;;3.13;2.83;;;;;;;;;;5062347;28;20048;-88
2022/10/18 12:01:28;;;;;;;3.50;3.17;;;;;;;;;;5058552;28;20049;-87
2022/10/18 12:03:59;;;;;;;4.50;3.58;;;;;;;;;;5063720;28;20048;-87
2022/10/18 12:06:28;;;;;;;5.35;4.38;;;;;;;;;;5059297;28;20099;-87
2022/10/18 12:08:59;;;;;;;4.38;3.05;;;;;;;;;;5058238;28;20412;-87
2022/10/18 12:11:28;;;;;;;3.33;3.08;;;;;;;;;;5059779;28;20052;-87
2022/10/18 12:13:56;;;;;;;4.22;3.92;;;;;;;;;;5063019;28;20057;-88
2022/10/18 12:16:24;;;;;;;4.28;3.75;;;;;;;;;;5062606;28;20049;-88
2022/10/18 12:18:53;;;;;;;4.72;4.32;;;;;;;;;;5063220;28;20110;-88
2022/10/18 12:21:21;;;;;;;4.43;4.18;;;;;;;;;;5052558;28;20099;-88
2022/10/18 12:23:51;;;;;;;3.67;3.42;;;;;;;;;;5052597;28;20048;-88
2022/10/18 12:26:19;;;;;;;3.28;2.95;;;;;;;;;;5051890;28;20099;-88
2022/10/18 12:28:49;;;;;;;4.63;3.25;;;;;;;;;;5052519;28;20049;-89
2022/10/18 12:31:20;;;;;;;3.53;3.22;;;;;;;;;;5052894;28;20048;-88
2022/10/18 12:33:48;;;;;;;4.63;4.22;;;;;;;;;;5051081;28;20053;-89
2022/10/18 12:36:22;;;;;;;4.18;3.88;;;;;;;;;;5050175;28;20103;-89
2022/10/18 12:38:52;;;;;;;2.72;2.53;;;;;;;;;;5056537;28;20044;-89
2022/10/18 12:41:21;;;;;;;3.33;3.03;;;;;;;;;;5057559;28;20094;-88
2022/10/18 12:43:52;;;;;;;2.60;2.40;;;;;;;;;;5052260;28;20044;-89
2022/10/18 12:46:18;;;;;;;2.90;2.70;;;;;;;;;;5057891;28;20052;-88
2022/10/18 12:48:46;;;;;;;4.22;3.92;;;;;;;;;;5057993;28;20508;-89
2022/10/18 12:51:14;;;;;;;4.50;4.10;;;;;;;;;;5064476;28;20048;-89
2022/10/18 12:53:41;;;;;;;4.35;3.65;;;;;;;;;;5060757;28;20057;-88
2022/10/18 12:56:25;;;;;;;3.50;3.20;;;;;;;;;;5070120;28;20084;-86
2022/10/18 12:58:53;;;;;;;3.88;2.97;;;;;;;;;;5051161;28;20110;-87
2022/10/18 13:01:19;;;;;;;4.55;3.67;;;;;;;;;;5049942;28;20044;-88
2022/10/18 13:03:55;;;;;;;3.60;2.97;;;;;;;;;;5052109;28;20122;-88
2022/10/18 13:06:22;;;;;;;4.10;3.88;;;;;;;;;;5060097;28;20059;-88
2022/10/18 13:09:09;;;;;;;2.85;2.65;;;;;;;;;;5057069;28;20110;-88
2022/10/18 13:11:35;;;;;;;3.75;3.45;;;;;;;;;;5051053;28;20045;-88
2022/10/18 13:14:26;;;;;;;4.05;3.75;;;;;;;;;;5070800;28;20086;-83
2022/10/18 13:16:56;;;;;;;5.18;4.72;;;;;;;;;;5054465;28;20117;-83
2022/10/18 13:19:26;;;;;;;3.20;2.90;;;;;;;;;;5070331;28;20098;-83
2022/10/18 13:21:52;;;;;;;;;;;;;;;;;;5051541;28;20045;-83
2022/10/18 13:24:26;;;;;;;5.55;5.15;;;;;;;;;;5051289;28;20010;-83
2022/10/18 13:27:07;;;;;;;3.97;3.67;;;;;;;;;;5050974;28;20107;-83
2022/10/18 13:29:49;;;;;;;3.38;3.08;;;;;;;;;;5056082;28;20049;-85
2022/10/18 13:32:24;;;;;;;2.90;2.70;;;;;;;;;;5052636;28;20890;-85
2022/10/18 13:34:50;;;;;;;3.90;3.60;;;;;;;;;;5051294;28;20138;-84
2022/10/18 13:37:22;;;;;;;4.38;4.05;;;;;;;;;;5051364;28;20489;-84
2022/10/18 13:39:49;;;;;;;3.10;2.90;;;;;;;;;;5070456;28;20053;-84
2022/10/18 13:42:33;;;;;;;3.72;3.42;;;;;;;;;;5070351;28;20052;-83
2022/10/18 13:45:18;;;;;;;3.70;3.40;;;;;;;;;;5050638;28;20056;-83
2022/10/18 13:47:46;;;;;;;3.53;2.78;;;;;;;;;;5058107;28;20045;-84
2022/10/18 13:50:33;;;;;;;3.28;3.08;;;;;;;;;;5071398;28;20424;-83
2022/10/18 13:53:14;;;;;;;2.78;2.55;;;;;;;;;;5070550;28;20106;-84
2022/10/18 13:55:47;;;;;;;2.30;2.05;;;;;;;;;;5071485;28;20105;-83
2022/10/18 13:58:18;;;;;;;2.72;2.40;;;;;;;;;;5070840;28;20569;-82
2022/10/18 14:00:51;;;;;;;3.03;2.75;;;;;;;;;;5071159;28;20553;-83
2022/10/18 14:03:38;;;;;;;2.90;2.70;;;;;;;;;;5070528;28;20044;-84
2022/10/18 14:06:06;;;;;;;2.47;2.22;;;;;;;;;;5070071;28;20113;-84
2022/10/18 14:08:34;;;;;;;4.50;2.70;;;;;;;;;;5070940;28;20101;-83
2022/10/18 14:11:03;;;;;;;2.88;2.40;;;;;;;;;;5069294;28;20058;-84
2022/10/18 14:13:33;;;;;;;3.97;2.10;;;;;;;;;;5051434;28;20041;-84
2022/10/18 14:16:05;;;;;;;2.85;2.55;;;;;;;;;;5050826;28;20049;-84
2022/10/18 14:18:32;;;;;;;3.45;1.92;;;;;;;;;;5050919;28;20505;-83
2022/10/18 14:21:03;;;;;;;3.47;3.22;;;;;;;;;;5055824;28;20048;-83
2022/10/18 14:23:32;;;;;;;3.78;2.92;;;;;;;;;;5056758;28;20124;-83
2022/10/18 14:26:05;;;;;;;4.10;3.67;;;;;;;;;;5062581;28;20053;-83
2022/10/18 14:28:32;;;;;;;3.22;2.67;;;;;;;;;;5061333;28;20106;-83
2022/10/18 14:31:00;;;;;;;3.97;2.65;;;;;;;;;;5051947;28;20049;-83
2022/10/18 14:33:28;;;;;;;3.10;2.90;;;;;;;;;;5055006;28;20055;-83
2022/10/18 14:35:59;;;;;;;3.70;2.78;;;;;;;;;;5054471;28;20106;-83
2022/10/18 14:38:27;;;;;;;2.80;2.40;;;;;;;;;;5055269;28;20127;-84
2022/10/18 14:41:04;;;;;;;5.85;2.90;;;;;;;;;;5054645;28;20041;-83
2022/10/18 14:43:30;;;;;;;3.97;3.47;;;;;;;;;;5054779;28;20114;-84
2022/10/18 14:46:07;;;;;;;2.50;2.30;;;;;;;;;;5054311;28;20114;-84
2022/10/18 14:48:34;;;;;;;3.42;3.13;;;;;;;;;;5054690;28;20044;-83
2022/10/18 14:51:09;;;;;;;2.85;2.65;;;;;;;;;;5054552;28;20145;-83
2022/10/18 14:53:39;;;;;;;3.10;2.80;;;;;;;;;;5054524;28;20178;-83